Pagina principală
METAR-TAF:

METAR-TAF

Aeroporturi :

Hawkins Field

Jackson, Mississippi, Statele Unite ale Americii

Latitudine: 32-20-05N, longitudine: 090-13-21W, elevație: 104 m

Observații meteo curente

Raportul a fost făcut în urmă cu 1 oră și 13 de minute, la 23:53 UTC
Vânt 6 kt de la Est
Temperatură 27°C
Umiditate 74%
Presiune 1016 hPa
Vizibilitate: 16.1 km
Cer senin

METAR: KHKS 182353Z 10006KT 10SM CLR 27/22 A3001 RMK AO2 SLP152 60000 T02670222 10272 20256 53003

Ora: 20:06 (01:06 UTC)

Prognoză

Raportul a fost făcut în urmă cu 1 oră și 30 de minute, la 23:36 UTC
Prognoză valabilă de la 19 ora 00 UTC la 19 ora 24 UTC
Vânt 5 kt de la Est
Vizibilitate: 10 km
Nori împrăștiați la o înălțime de 9000 picior
Total acoperit la o înălțime de 15000 picior

TAF: KHKS 182336Z 1900/1924 10005KT P6SM SCT090 OVC150

Observații și prognoze meteo pentru peste 4.000 de aeroporturi (rapoarte METAR și TAF).

Stațiile disponibile sunt reprezentate pe hartă prin puncte galbene și roșii.

Țineți indicatorul mouse-ului pe punctul dorit pentru a vedea denumirea stației.

Apoi, faceți clic pentru a vedea observațiile și prognozele meteorologice.

Pentru a schimba harta: Pentru mărire, faceți clic pe butoanele verzi cu cruce neagră; pentru micșorare, pe butonul verde cu o liniuță; pentru hărți învecinate, pe săgețile verzi.


METAR-TAF: